Strona główna
METAR-TAF:

METAR-TAF

Lotnisko :

Port lotniczy Castellón-Costa Azahar

Castellón de la Plana, Hiszpania

Szerokość geograficzna: 40-12-35N, Długość geograficzna: 0-04-11E, wysokość: 360 m

Aktualna obserwacja pogody

Raport powstał 55 minut temu, godzina 18:30 UTC
Wiatr 6 kt od południe, zmienny między południowo-południowy wschód i południowo-południowy zachód
Temperatura 23°C
Wilgotność 50%
Ciśnienie 1012 hPa
Widzialność 10 km lub więcej
Brak chmur poniżej 1500 m i brak chmur cumulonimbus

METAR: LECH 251830Z AUTO 17006KT 150V210 CAVOK 23/12 Q1012

czas: 21:25 (19:25 UTC)


TAF: brakujący

Obserwacja i prognoza pogody dla ponad 4000 lotnisk (raport METAR i TAF).

Dostępne stacje oznaczono żółtymi i czerwonymi punktami na mapie.

Najedź kursorem aby zobaczyć nazwę stacji.

Kliknij aby zobaczyć obserwacje i prognozy pogody.

Aby zmienić mapę: kliknij na zielony przycisk z czarnym krzyżykiem, aby powiększyć; na zielony przycisk z myślnikiem, aby pomniejszyć; na zielone strzałki, aby przejść do map sąsiednich.


METAR-TAF: